createdAt,value
2022-11-10T00:01:07.828Z,12.11
2022-11-10T00:03:36.061Z,12.11
2022-11-10T00:06:07.290Z,12.07
2022-11-10T00:08:34.635Z,12.07
2022-11-10T00:11:08.353Z,12.07
2022-11-10T00:13:57.314Z,12.12
2022-11-10T00:16:42.759Z,12.05
2022-11-10T00:19:09.643Z,12.10
2022-11-10T00:21:37.226Z,12.00
2022-11-10T00:24:04.315Z,11.94
2022-11-10T00:26:30.823Z,12.00
2022-11-10T00:28:57.370Z,12.01
2022-11-10T00:31:23.824Z,11.99
2022-11-10T00:33:50.587Z,11.99
2022-11-10T00:36:17.051Z,11.90
2022-11-10T00:38:43.534Z,11.89
2022-11-10T00:41:10.061Z,11.82
2022-11-10T00:43:36.557Z,11.79
2022-11-10T00:46:03.138Z,11.73
2022-11-10T00:48:29.722Z,11.82
2022-11-10T00:50:56.233Z,11.70
2022-11-10T00:53:23.299Z,11.67
2022-11-10T00:55:50.246Z,11.73
2022-11-10T00:58:16.850Z,11.64
2022-11-10T01:00:43.438Z,11.60
2022-11-10T01:03:17.769Z,11.62
2022-11-10T01:05:44.807Z,11.57
2022-11-10T01:08:11.645Z,11.53
2022-11-10T01:10:38.191Z,11.53
2022-11-10T01:13:04.785Z,11.54
2022-11-10T01:15:31.298Z,11.63
2022-11-10T01:17:57.864Z,11.49
2022-11-10T01:20:25.380Z,11.41
2022-11-10T01:22:52.150Z,11.40
2022-11-10T01:25:18.967Z,11.35
2022-11-10T01:27:45.645Z,11.32
2022-11-10T01:30:12.488Z,11.29
2022-11-10T01:32:39.141Z,11.25
2022-11-10T01:35:06.350Z,11.18
2022-11-10T01:37:32.879Z,11.13
2022-11-10T01:39:59.729Z,11.19
2022-11-10T01:42:28.486Z,11.15
2022-11-10T01:45:22.970Z,11.19
2022-11-10T01:47:58.908Z,11.15
2022-11-10T01:50:30.130Z,11.04
2022-11-10T01:53:00.285Z,10.99
2022-11-10T01:55:27.412Z,10.98
2022-11-10T01:57:55.624Z,11.01
2022-11-10T02:00:22.947Z,10.95
2022-11-10T02:03:04.003Z,10.88
2022-11-10T02:05:31.809Z,10.87
2022-11-10T02:07:58.586Z,10.84
2022-11-10T02:10:25.728Z,10.80
2022-11-10T02:12:52.558Z,10.81
2022-11-10T02:15:19.555Z,10.80
2022-11-10T02:17:47.722Z,10.80
2022-11-10T02:20:17.325Z,10.89
2022-11-10T02:22:44.257Z,10.91
2022-11-10T02:25:13.928Z,10.96
2022-11-10T02:27:40.468Z,11.07
2022-11-10T02:30:07.876Z,11.08
2022-11-10T02:32:34.440Z,11.08
2022-11-10T02:35:00.944Z,11.14
2022-11-10T02:37:27.456Z,11.21
2022-11-10T02:39:54.026Z,11.31
2022-11-10T02:42:20.798Z,11.40
2022-11-10T02:44:47.775Z,11.34
2022-11-10T02:47:14.284Z,11.33
2022-11-10T02:49:40.788Z,11.32
2022-11-10T02:52:07.298Z,11.50
2022-11-10T02:54:33.815Z,11.48
2022-11-10T02:57:02.706Z,11.43
2022-11-10T02:59:29.409Z,11.44
2022-11-10T03:01:55.921Z,11.36
2022-11-10T03:04:22.418Z,11.44
2022-11-10T03:06:48.942Z,11.37
2022-11-10T03:09:15.549Z,11.40
2022-11-10T03:11:42.013Z,11.45
2022-11-10T03:14:08.564Z,11.52
2022-11-10T03:16:35.042Z,11.56
2022-11-10T03:19:01.556Z,11.49
2022-11-10T03:21:28.161Z,11.40
2022-11-10T03:23:54.699Z,11.52
2022-11-10T03:26:22.412Z,11.54
2022-11-10T03:28:48.914Z,11.44
2022-11-10T03:31:15.393Z,11.51
2022-11-10T03:33:41.868Z,11.49
2022-11-10T03:36:08.445Z,11.49
2022-11-10T03:38:34.937Z,11.58
2022-11-10T03:41:18.799Z,11.59
2022-11-10T03:43:46.257Z,11.63
2022-11-10T03:46:12.755Z,11.43
2022-11-10T03:48:39.216Z,11.51
2022-11-10T03:51:05.910Z,11.37
2022-11-10T03:53:32.466Z,11.43
2022-11-10T03:56:06.145Z,11.38
2022-11-10T03:58:32.833Z,11.43
2022-11-10T04:00:59.654Z,11.44
2022-11-10T04:03:26.534Z,11.54
2022-11-10T04:06:11.721Z,11.49
2022-11-10T04:08:56.982Z,11.49
2022-11-10T04:11:41.925Z,11.51
2022-11-10T04:14:26.766Z,11.53
2022-11-10T04:16:53.190Z,11.64
2022-11-10T04:19:19.769Z,11.63
2022-11-10T04:21:46.508Z,11.71
2022-11-10T04:24:13.058Z,11.65
2022-11-10T04:26:40.602Z,11.74
2022-11-10T04:29:09.567Z,11.78
2022-11-10T04:31:38.019Z,11.87
2022-11-10T04:34:09.884Z,11.72
2022-11-10T04:36:38.670Z,11.77
2022-11-10T04:39:06.334Z,11.87
2022-11-10T04:41:33.719Z,11.84
2022-11-10T04:44:01.288Z,11.78
2022-11-10T04:46:37.421Z,11.81
2022-11-10T04:49:05.570Z,11.81
2022-11-10T04:51:38.112Z,11.73
2022-11-10T04:54:06.482Z,11.76
2022-11-10T04:56:34.583Z,11.69
2022-11-10T04:59:01.050Z,11.86
2022-11-10T05:01:28.166Z,11.94
2022-11-10T05:03:55.095Z,11.74
2022-11-10T05:06:22.079Z,11.91
2022-11-10T05:08:48.925Z,11.92
2022-11-10T05:11:15.578Z,11.69
2022-11-10T05:13:43.307Z,11.55
2022-11-10T05:16:11.024Z,11.54
2022-11-10T05:18:37.970Z,11.56
2022-11-10T05:21:05.382Z,11.69
2022-11-10T05:23:37.882Z,11.56
2022-11-10T05:26:08.686Z,11.56
2022-11-10T05:28:35.948Z,11.64
2022-11-10T05:31:02.892Z,11.54
2022-11-10T05:33:29.883Z,11.68
2022-11-10T05:35:56.447Z,11.66
2022-11-10T05:38:23.116Z,11.57
2022-11-10T05:40:49.713Z,11.64
2022-11-10T05:43:16.460Z,11.60
2022-11-10T05:45:43.049Z,11.53
2022-11-10T05:48:09.622Z,11.45
2022-11-10T05:50:36.754Z,11.80
2022-11-10T05:53:03.468Z,11.81
2022-11-10T05:55:30.682Z,11.84
2022-11-10T05:57:57.863Z,11.70
2022-11-10T06:00:27.602Z,11.53
2022-11-10T06:03:12.410Z,11.46
2022-11-10T06:05:38.834Z,11.70
2022-11-10T06:08:06.453Z,11.75
2022-11-10T06:10:34.218Z,11.72
2022-11-10T06:13:01.202Z,11.60
2022-11-10T06:15:28.208Z,11.87
2022-11-10T06:17:55.121Z,11.83
2022-11-10T06:20:22.647Z,11.75
2022-11-10T06:23:05.531Z,11.71
2022-11-10T06:25:34.744Z,11.70
2022-11-10T06:28:01.871Z,11.72
2022-11-10T06:30:29.688Z,11.81
2022-11-10T06:32:56.263Z,11.77
2022-11-10T06:35:23.868Z,11.69
2022-11-10T06:38:05.764Z,11.70
2022-11-10T06:40:33.245Z,11.71
2022-11-10T06:43:01.539Z,11.75
2022-11-10T06:45:28.691Z,11.72
2022-11-10T06:48:06.306Z,11.76
2022-11-10T06:50:33.493Z,11.75
2022-11-10T06:53:00.435Z,11.89
2022-11-10T06:55:27.391Z,11.84
2022-11-10T06:57:54.388Z,11.83
2022-11-10T07:00:21.873Z,11.67
2022-11-10T07:02:48.465Z,11.66
2022-11-10T07:05:15.567Z,11.64
2022-11-10T07:07:42.138Z,11.60
2022-11-10T07:10:09.194Z,11.60
2022-11-10T07:12:35.936Z,11.65
2022-11-10T07:15:02.421Z,11.41
2022-11-10T07:17:28.912Z,11.34
2022-11-10T07:19:55.451Z,11.35
2022-11-10T07:22:21.961Z,11.40
2022-11-10T07:24:48.533Z,11.30
2022-11-10T07:27:15.018Z,11.39
2022-11-10T07:29:42.093Z,11.45
2022-11-10T07:32:08.616Z,11.45
2022-11-10T07:34:35.118Z,11.52
2022-11-10T07:37:01.638Z,11.63
2022-11-10T07:39:28.126Z,11.72
2022-11-10T07:41:54.695Z,11.75
2022-11-10T07:44:21.170Z,11.81
2022-11-10T07:46:47.660Z,11.83
2022-11-10T07:49:14.241Z,11.84
2022-11-10T07:51:43.393Z,11.80
2022-11-10T07:54:10.151Z,11.80
2022-11-10T07:56:36.799Z,11.83
2022-11-10T07:59:03.333Z,11.68
2022-11-10T08:01:30.086Z,11.58
2022-11-10T08:03:56.668Z,11.58
2022-11-10T08:06:23.159Z,11.57
2022-11-10T08:08:49.764Z,11.43
2022-11-10T08:11:16.325Z,11.55
2022-11-10T08:13:43.400Z,11.68
2022-11-10T08:16:10.163Z,11.75
2022-11-10T08:18:36.751Z,11.83
2022-11-10T08:21:04.328Z,11.84
2022-11-10T08:23:31.005Z,11.90
2022-11-10T08:26:01.432Z,11.97
2022-11-10T08:28:28.520Z,12.04
2022-11-10T08:30:55.156Z,12.05
2022-11-10T08:33:22.076Z,12.02
2022-11-10T08:35:51.023Z,12.01
2022-11-10T08:38:19.957Z,12.01
2022-11-10T08:40:46.853Z,11.99
2022-11-10T08:43:15.183Z,12.07
2022-11-10T08:45:43.233Z,12.05
2022-11-10T08:48:12.931Z,11.92
2022-11-10T08:50:39.760Z,11.83
2022-11-10T08:53:10.225Z,12.04
2022-11-10T08:55:36.736Z,12.13
2022-11-10T08:58:04.602Z,12.14
2022-11-10T09:00:32.567Z,11.91
2022-11-10T09:03:20.638Z,11.69
2022-11-10T09:05:52.418Z,11.69
2022-11-10T09:08:23.304Z,11.75
2022-11-10T09:10:51.142Z,11.98
2022-11-10T09:13:19.046Z,12.08
2022-11-10T09:15:45.742Z,12.30
2022-11-10T09:18:13.907Z,12.43
2022-11-10T09:20:41.066Z,12.49
2022-11-10T09:23:16.676Z,12.45
2022-11-10T09:25:49.936Z,12.47
2022-11-10T09:28:18.003Z,12.36
2022-11-10T09:30:49.813Z,12.43
2022-11-10T09:33:17.996Z,12.57
2022-11-10T09:35:45.048Z,12.66
2022-11-10T09:38:12.166Z,12.69
2022-11-10T09:40:49.238Z,12.70
2022-11-10T09:43:23.801Z,12.66
2022-11-10T09:45:53.765Z,12.62
2022-11-10T09:48:31.573Z,12.72
2022-11-10T09:51:13.887Z,12.63
2022-11-10T09:53:50.729Z,12.63
2022-11-10T09:56:23.123Z,12.71
2022-11-10T09:58:50.889Z,12.73
2022-11-10T10:01:38.118Z,12.77
2022-11-10T10:04:27.563Z,12.80
2022-11-10T10:07:14.410Z,13.04
2022-11-10T10:09:49.703Z,13.10
2022-11-10T10:12:44.110Z,13.06
2022-11-10T10:15:32.420Z,13.13
2022-11-10T10:18:14.276Z,13.20
2022-11-10T10:20:49.609Z,13.21
2022-11-10T10:23:40.385Z,13.30
2022-11-10T10:26:17.367Z,13.23
2022-11-10T10:28:49.549Z,13.31
2022-11-10T10:31:27.249Z,13.39
2022-11-10T10:33:55.060Z,13.50
2022-11-10T10:36:26.588Z,13.61
2022-11-10T10:39:08.072Z,13.79
2022-11-10T10:41:37.140Z,13.86
2022-11-10T10:44:11.903Z,13.85
2022-11-10T10:46:59.298Z,13.78
2022-11-10T10:49:29.077Z,13.65
2022-11-10T10:52:05.295Z,13.58
2022-11-10T10:54:33.993Z,13.42
2022-11-10T10:57:23.423Z,13.39
2022-11-10T10:59:51.057Z,13.48
2022-11-10T11:02:30.987Z,13.15
2022-11-10T11:05:15.620Z,13.13
2022-11-10T11:07:54.307Z,13.25
2022-11-10T11:10:33.824Z,13.12
2022-11-10T11:13:24.733Z,13.14
2022-11-10T11:15:58.807Z,13.18
2022-11-10T11:18:27.259Z,13.37
2022-11-10T11:21:05.563Z,13.31
2022-11-10T11:23:59.629Z,13.24
2022-11-10T11:26:34.291Z,13.43
2022-11-10T11:29:21.749Z,13.60
2022-11-10T11:31:50.992Z,13.36
2022-11-10T11:34:26.252Z,13.59
2022-11-10T11:37:09.875Z,13.50
2022-11-10T11:39:59.000Z,13.24
2022-11-10T11:42:36.958Z,13.14
2022-11-10T11:45:17.262Z,13.21
2022-11-10T11:47:50.766Z,13.30
2022-11-10T11:50:41.421Z,13.19
2022-11-10T11:53:14.137Z,13.23
2022-11-10T11:55:58.233Z,13.31
2022-11-10T11:58:27.429Z,13.15
2022-11-10T12:01:12.182Z,13.29
2022-11-10T12:03:50.834Z,13.31
2022-11-10T12:06:40.559Z,13.49
2022-11-10T12:09:35.053Z,13.56
2022-11-10T12:12:06.399Z,13.74
2022-11-10T12:15:00.890Z,13.52
2022-11-10T12:17:42.665Z,13.64
2022-11-10T12:20:30.698Z,13.71
2022-11-10T12:23:06.317Z,13.88
2022-11-10T12:26:03.109Z,14.04
2022-11-10T12:28:51.245Z,13.99
2022-11-10T12:31:22.139Z,13.84
2022-11-10T12:33:56.641Z,13.98
2022-11-10T12:36:26.243Z,14.09
2022-11-10T12:39:15.711Z,14.04
2022-11-10T12:41:47.756Z,13.98
2022-11-10T12:44:24.523Z,13.92
2022-11-10T12:46:56.989Z,14.11
2022-11-10T12:49:32.507Z,13.93
2022-11-10T12:52:40.656Z,13.90
2022-11-10T12:55:15.063Z,14.03
2022-11-10T12:57:42.935Z,14.22
2022-11-10T13:00:31.794Z,14.19
2022-11-10T13:03:00.038Z,13.97
2022-11-10T13:05:34.411Z,13.95
2022-11-10T13:08:06.109Z,14.13
2022-11-10T13:10:32.786Z,14.08
2022-11-10T13:13:05.284Z,14.09
2022-11-10T13:15:44.008Z,14.34
2022-11-10T13:18:34.483Z,14.38
2022-11-10T13:21:01.840Z,14.47
2022-11-10T13:23:28.432Z,14.57
2022-11-10T13:26:01.306Z,14.56
2022-11-10T13:28:46.402Z,14.52
2022-11-10T13:31:33.216Z,14.46
2022-11-10T13:34:11.617Z,14.47
2022-11-10T13:36:43.839Z,14.49
2022-11-10T13:39:19.050Z,14.38
2022-11-10T13:41:49.934Z,14.32
2022-11-10T13:44:27.234Z,14.42
2022-11-10T13:47:06.110Z,14.41
2022-11-10T13:49:39.031Z,14.32
2022-11-10T13:52:18.271Z,14.14
2022-11-10T13:55:29.372Z,14.11
2022-11-10T13:58:29.812Z,14.20
2022-11-10T14:01:26.926Z,14.21
2022-11-10T14:03:57.359Z,14.21
2022-11-10T14:06:40.250Z,14.30
2022-11-10T14:09:22.246Z,14.28
2022-11-10T14:11:54.022Z,14.19
2022-11-10T14:14:24.582Z,14.13
2022-11-10T14:16:53.121Z,14.21
2022-11-10T14:19:25.256Z,14.43
2022-11-10T14:22:13.695Z,14.48
2022-11-10T14:25:19.430Z,14.43
2022-11-10T14:27:45.984Z,14.26
2022-11-10T14:30:18.340Z,14.32
2022-11-10T14:32:44.977Z,14.33
2022-11-10T14:35:24.021Z,14.39
2022-11-10T14:37:51.403Z,14.33
2022-11-10T14:40:20.192Z,14.32
2022-11-10T14:42:47.760Z,14.36
2022-11-10T14:45:32.515Z,14.23
2022-11-10T14:48:00.349Z,14.23
2022-11-10T14:50:28.352Z,14.31
2022-11-10T14:53:02.114Z,14.41
2022-11-10T14:55:32.065Z,14.35
2022-11-10T14:58:03.937Z,14.26
2022-11-10T15:00:36.133Z,14.28
2022-11-10T15:03:03.801Z,14.19
2022-11-10T15:05:31.576Z,14.30
2022-11-10T15:07:59.227Z,14.23
2022-11-10T15:10:42.099Z,14.24
2022-11-10T15:13:14.775Z,14.15
2022-11-10T15:15:41.662Z,14.13
2022-11-10T15:18:25.289Z,14.14
2022-11-10T15:21:02.069Z,14.14
2022-11-10T15:23:39.103Z,14.21
2022-11-10T15:26:07.660Z,14.22
2022-11-10T15:28:35.867Z,14.19
2022-11-10T15:31:05.622Z,14.14
2022-11-10T15:33:35.716Z,14.18
2022-11-10T15:36:27.853Z,14.14
2022-11-10T15:39:20.049Z,14.12
2022-11-10T15:41:48.217Z,14.03
2022-11-10T15:44:19.266Z,13.98
2022-11-10T15:46:47.087Z,14.01
2022-11-10T15:49:35.830Z,14.11
2022-11-10T15:52:22.957Z,13.96
2022-11-10T15:54:50.937Z,13.94
2022-11-10T15:57:19.842Z,13.94
2022-11-10T15:59:46.524Z,13.99
2022-11-10T16:02:23.317Z,13.88
2022-11-10T16:04:59.583Z,13.94
2022-11-10T16:07:26.805Z,13.97
2022-11-10T16:09:53.388Z,13.98
2022-11-10T16:12:22.243Z,13.83
2022-11-10T16:14:51.267Z,13.80
2022-11-10T16:17:18.325Z,13.81
2022-11-10T16:19:46.552Z,13.78
2022-11-10T16:22:13.681Z,13.70
2022-11-10T16:24:41.261Z,13.62
2022-11-10T16:27:12.802Z,13.51
2022-11-10T16:29:40.380Z,13.48
2022-11-10T16:32:07.339Z,13.44
2022-11-10T16:34:33.909Z,13.45
2022-11-10T16:37:00.810Z,13.38
2022-11-10T16:39:27.619Z,13.29
2022-11-10T16:41:54.120Z,13.21
2022-11-10T16:44:25.265Z,13.28
2022-11-10T16:46:56.424Z,13.23
2022-11-10T16:49:34.760Z,13.10
2022-11-10T16:52:13.976Z,12.99
2022-11-10T16:54:40.541Z,12.99
2022-11-10T16:57:14.421Z,12.97
2022-11-10T16:59:42.901Z,13.02
2022-11-10T17:02:33.712Z,12.94
2022-11-10T17:05:00.239Z,12.91
2022-11-10T17:07:27.929Z,12.84
2022-11-10T17:09:57.109Z,12.78
2022-11-10T17:12:23.610Z,12.70
2022-11-10T17:14:50.148Z,12.68
2022-11-10T17:17:19.386Z,12.62
2022-11-10T17:19:48.572Z,12.67
2022-11-10T17:22:19.401Z,12.67
2022-11-10T17:24:51.990Z,12.64
2022-11-10T17:27:20.042Z,12.56
2022-11-10T17:29:46.983Z,12.51
2022-11-10T17:32:13.931Z,12.48
2022-11-10T17:34:40.554Z,12.60
2022-11-10T17:37:12.906Z,12.56
2022-11-10T17:39:40.405Z,12.55
2022-11-10T17:42:11.913Z,12.43
2022-11-10T17:44:38.450Z,12.36
2022-11-10T17:47:05.082Z,12.28
2022-11-10T17:49:31.659Z,12.25
2022-11-10T17:51:58.147Z,12.22
2022-11-10T17:54:25.392Z,12.19
2022-11-10T17:56:51.954Z,12.15
2022-11-10T17:59:18.504Z,12.12
2022-11-10T18:01:45.623Z,12.08
2022-11-10T18:04:13.716Z,12.13
2022-11-10T18:06:40.223Z,12.10
2022-11-10T18:09:06.748Z,12.05
2022-11-10T18:11:33.487Z,12.06
2022-11-10T18:14:00.753Z,12.10
2022-11-10T18:16:27.250Z,12.09
2022-11-10T18:18:53.816Z,11.98
2022-11-10T18:21:20.323Z,11.91
2022-11-10T18:23:47.137Z,11.90
2022-11-10T18:26:13.681Z,11.94
2022-11-10T18:28:41.131Z,11.93
2022-11-10T18:31:09.906Z,11.94
2022-11-10T18:33:36.840Z,11.95
2022-11-10T18:36:03.992Z,11.90
2022-11-10T18:38:30.521Z,11.88
2022-11-10T18:41:17.103Z,11.83
2022-11-10T18:43:43.687Z,11.76
2022-11-10T18:46:10.233Z,11.75
2022-11-10T18:48:37.475Z,11.72
2022-11-10T18:51:07.421Z,11.74
2022-11-10T18:53:38.082Z,11.74
2022-11-10T18:56:05.446Z,11.77
2022-11-10T18:58:32.162Z,11.78
2022-11-10T19:01:06.833Z,11.82
2022-11-10T19:03:34.879Z,11.83
2022-11-10T19:06:01.599Z,11.71
2022-11-10T19:08:28.863Z,11.66
2022-11-10T19:10:56.299Z,11.54
2022-11-10T19:13:23.131Z,11.64
2022-11-10T19:15:50.458Z,11.62
2022-11-10T19:18:17.118Z,11.60
2022-11-10T19:20:43.634Z,11.62
2022-11-10T19:23:10.149Z,11.58
2022-11-10T19:25:36.762Z,11.58
2022-11-10T19:28:04.662Z,11.49
2022-11-10T19:30:31.417Z,11.44
2022-11-10T19:32:57.989Z,11.42
2022-11-10T19:35:24.514Z,11.47
2022-11-10T19:37:54.087Z,11.43
2022-11-10T19:40:22.396Z,11.42
2022-11-10T19:42:49.374Z,11.37
2022-11-10T19:45:16.657Z,11.29
2022-11-10T19:47:43.724Z,11.32
2022-11-10T19:50:10.444Z,11.31
2022-11-10T19:52:36.989Z,11.27
2022-11-10T19:55:03.702Z,11.25
2022-11-10T19:57:30.239Z,11.17
2022-11-10T19:59:56.711Z,11.11
2022-11-10T20:02:23.247Z,11.08
2022-11-10T20:05:08.246Z,11.03
2022-11-10T20:07:53.130Z,11.03
2022-11-10T20:10:19.556Z,11.00
2022-11-10T20:12:46.085Z,11.03
2022-11-10T20:15:12.697Z,11.08
2022-11-10T20:17:39.303Z,11.05
2022-11-10T20:20:07.170Z,11.00
2022-11-10T20:22:33.723Z,11.10
2022-11-10T20:25:00.715Z,11.13
2022-11-10T20:27:27.265Z,11.08
2022-11-10T20:29:53.830Z,11.08
2022-11-10T20:32:20.682Z,11.02
2022-11-10T20:34:47.185Z,10.97
2022-11-10T20:37:13.665Z,10.89
2022-11-10T20:39:40.224Z,10.85
2022-11-10T20:42:06.731Z,10.81
2022-11-10T20:44:33.780Z,10.75
2022-11-10T20:47:01.047Z,10.78
2022-11-10T20:49:27.907Z,10.69
2022-11-10T20:51:59.643Z,10.70
2022-11-10T20:54:26.982Z,10.69
2022-11-10T20:56:54.146Z,10.78
2022-11-10T20:59:21.326Z,10.68
2022-11-10T21:01:47.943Z,10.71
2022-11-10T21:04:14.665Z,10.67
2022-11-10T21:06:41.315Z,10.66
2022-11-10T21:09:08.021Z,10.57
2022-11-10T21:11:53.291Z,10.59
2022-11-10T21:14:19.795Z,10.63
2022-11-10T21:16:46.340Z,10.64
2022-11-10T21:19:12.870Z,10.66
2022-11-10T21:21:39.351Z,10.56
2022-11-10T21:24:07.426Z,10.50
2022-11-10T21:26:35.704Z,10.52
2022-11-10T21:29:03.709Z,10.53
2022-11-10T21:31:33.396Z,10.51
2022-11-10T21:34:00.232Z,10.52
2022-11-10T21:36:29.587Z,10.48
2022-11-10T21:38:57.609Z,10.36
2022-11-10T21:41:25.213Z,10.39
2022-11-10T21:43:51.729Z,10.43
2022-11-10T21:46:18.253Z,10.37
2022-11-10T21:48:45.171Z,10.35
2022-11-10T21:51:12.579Z,10.42
2022-11-10T21:53:39.730Z,10.43
2022-11-10T21:56:08.165Z,10.38
2022-11-10T21:58:35.248Z,10.38
2022-11-10T22:01:03.014Z,10.32
2022-11-10T22:03:30.581Z,10.32
2022-11-10T22:06:06.313Z,10.31
2022-11-10T22:08:33.689Z,10.24
2022-11-10T22:11:18.832Z,10.23
2022-11-10T22:14:04.595Z,10.17
2022-11-10T22:17:09.031Z,10.20
2022-11-10T22:19:36.994Z,10.19
2022-11-10T22:22:04.343Z,10.21
2022-11-10T22:24:31.202Z,10.25
2022-11-10T22:27:03.179Z,10.25
2022-11-10T22:29:33.161Z,10.22
2022-11-10T22:32:01.851Z,10.15
2022-11-10T22:34:28.619Z,10.13
2022-11-10T22:36:55.519Z,10.08
2022-11-10T22:39:22.038Z,10.08
2022-11-10T22:42:07.484Z,10.03
2022-11-10T22:44:34.110Z,9.95
2022-11-10T22:47:00.674Z,10.02
2022-11-10T22:49:27.753Z,9.93
2022-11-10T22:51:55.314Z,9.92
2022-11-10T22:54:24.574Z,9.92
2022-11-10T22:56:51.554Z,9.98
2022-11-10T22:59:19.079Z,10.00
2022-11-10T23:01:45.895Z,10.01
2022-11-10T23:04:12.679Z,9.97
2022-11-10T23:06:39.425Z,9.89
2022-11-10T23:09:06.333Z,9.87
2022-11-10T23:11:33.562Z,9.87
2022-11-10T23:14:00.532Z,9.87
2022-11-10T23:16:33.725Z,9.83
2022-11-10T23:19:01.055Z,9.81
2022-11-10T23:21:30.508Z,9.83
2022-11-10T23:23:57.556Z,9.82
2022-11-10T23:26:34.009Z,9.84
2022-11-10T23:29:00.848Z,9.75
2022-11-10T23:31:28.893Z,9.74
2022-11-10T23:33:56.626Z,9.70
2022-11-10T23:36:24.757Z,9.67
2022-11-10T23:38:51.316Z,9.75
2022-11-10T23:41:19.968Z,9.72
2022-11-10T23:43:47.505Z,9.63
2022-11-10T23:46:14.444Z,9.65
2022-11-10T23:48:41.455Z,9.57
2022-11-10T23:51:10.527Z,9.67
2022-11-10T23:53:37.069Z,9.68
2022-11-10T23:56:06.282Z,9.57
2022-11-10T23:58:32.903Z,9.51
